Aeroporto :
LOGIN :

Iscrizione | Disclaimer

   EN    FR    IT 

 










Sommario :    VFR   VFR Marginale   IFR   IFR Intensivo   IFR Molto Intensivo
Visibilità : 
Base nubi : 
>= 8 km
>= 3000ft
5 / 8 km
1000 / 3000 ft
1500m / 5 km
500 / 1000 ft
800 / 1500m
200 / 500 ft
< 800m
< 200 ft
Simboli :   Temporali  Nebbia  Neve Forte  Precipitazioni Forti  Vento > 20 kt
SIGMETs :   Varie  Temporali  Ghiacco  Turbolenza  Onda orograficha  Ceneri Vulcaniche






- Altitudine del aeroporto : 38 ft
- Codice IATA : TRE


EGPU - Tiree

ULTIMO METAR :
  • 051620Z 25028G39KT 4000 RA BKN006 BKN015 11/11 Q0990

METARs OBSOLETI :
  • 051550Z 25027KT 4400 -RA OVC005 11/11 Q0990
  • 051520Z 24026KT 4400 -RA OVC006 11/11 Q0991
  • 051450Z 24026KT 4400 RA OVC004 11/11 Q0991
  • 051420Z 24027KT 3600 -RA OVC004 11/11 Q0992
  • 051350Z 24025G35KT 2400 RA OVC004 11/11 Q0992

TAF TAF EGPU
Valido dal 05 a 15 ore il 05 a 19 ore UTC


051400Z 0515/0519 20025G35KT 6000 RA BKN007
TEMPO 0515/0519 23035G45KT 2000 RADZ +RA BKN004
PROB30
TEMPO 0515/0519 9999 NSW BKN015
BECMG 0516/0519 26020G30KT



MetMap, La meteo Aeronautica in un colpo d'occhio ! - Copyright ORBIFLY Dicembre 2007 - Disclaimer

ORBIFLY MET'MAP TEAM :

Programmazione e sviluppo : Alexandra Zaïnal
Concezione : Baudouin d'Aumeries
Aiuto per la programmazione : Marc-Olivier Méhu
Supporto tecnico e logistico : Manuel Goepfert
Aiuto per la traduzione : Arnaldo La Scala

Contatto : metmap@orbifly.com




FONTI E CREDITI :

   NOAA